sensor_id;sensor_type;location;lat;lon;timestamp;temperature;humidity
16505;HTU21D;8365;51.030;4.696;2023-04-25T00:01:26;10.50;107.62
16505;HTU21D;8365;51.030;4.696;2023-04-25T00:03:56;10.41;107.83
16505;HTU21D;8365;51.030;4.696;2023-04-25T00:06:27;10.53;107.35
16505;HTU21D;8365;51.030;4.696;2023-04-25T00:08:57;10.56;106.35
16505;HTU21D;8365;51.030;4.696;2023-04-25T00:11:28;10.46;107.78
16505;HTU21D;8365;51.030;4.696;2023-04-25T00:13:59;10.55;107.46
16505;HTU21D;8365;51.030;4.696;2023-04-25T00:16:32;10.55;106.88
16505;HTU21D;8365;51.030;4.696;2023-04-25T00:19:04;10.56;105.79
16505;HTU21D;8365;51.030;4.696;2023-04-25T00:21:35;10.36;106.65
16505;HTU21D;8365;51.030;4.696;2023-04-25T00:24:07;10.36;107.01
16505;HTU21D;8365;51.030;4.696;2023-04-25T00:26:38;10.44;107.12
16505;HTU21D;8365;51.030;4.696;2023-04-25T00:29:08;10.45;106.69
16505;HTU21D;8365;51.030;4.696;2023-04-25T00:31:39;10.49;106.35
16505;HTU21D;8365;51.030;4.696;2023-04-25T00:34:09;10.34;107.18
16505;HTU21D;8365;51.030;4.696;2023-04-25T00:36:42;10.13;108.51
16505;HTU21D;8365;51.030;4.696;2023-04-25T00:39:13;10.28;108.13
16505;HTU21D;8365;51.030;4.696;2023-04-25T00:41:44;10.11;109.73
16505;HTU21D;8365;51.030;4.696;2023-04-25T00:44:18;10.34;108.56
16505;HTU21D;8365;51.030;4.696;2023-04-25T00:46:48;10.29;109.01
16505;HTU21D;8365;51.030;4.696;2023-04-25T00:49:19;10.37;108.82
16505;HTU21D;8365;51.030;4.696;2023-04-25T00:51:50;10.43;108.99
16505;HTU21D;8365;51.030;4.696;2023-04-25T00:54:20;10.39;108.75
16505;HTU21D;8365;51.030;4.696;2023-04-25T00:56:51;10.37;109.31
16505;HTU21D;8365;51.030;4.696;2023-04-25T00:59:21;10.33;109.48
16505;HTU21D;8365;51.030;4.696;2023-04-25T01:01:52;10.26;110.11
16505;HTU21D;8365;51.030;4.696;2023-04-25T01:04:23;10.26;109.59
16505;HTU21D;8365;51.030;4.696;2023-04-25T01:06:53;10.24;110.96
16505;HTU21D;8365;51.030;4.696;2023-04-25T01:09:24;10.23;110.49
16505;HTU21D;8365;51.030;4.696;2023-04-25T01:11:54;10.18;110.97
16505;HTU21D;8365;51.030;4.696;2023-04-25T01:14:25;10.20;110.92
16505;HTU21D;8365;51.030;4.696;2023-04-25T01:16:55;10.28;110.71
16505;HTU21D;8365;51.030;4.696;2023-04-25T01:19:26;10.27;110.31
16505;HTU21D;8365;51.030;4.696;2023-04-25T01:21:56;10.06;111.16
16505;HTU21D;8365;51.030;4.696;2023-04-25T01:24:27;10.03;111.49
16505;HTU21D;8365;51.030;4.696;2023-04-25T01:26:59;10.00;111.65
16505;HTU21D;8365;51.030;4.696;2023-04-25T01:29:30;10.09;111.19
16505;HTU21D;8365;51.030;4.696;2023-04-25T01:32:01;10.00;111.81
16505;HTU21D;8365;51.030;4.696;2023-04-25T01:34:34;10.18;110.23
16505;HTU21D;8365;51.030;4.696;2023-04-25T01:37:04;10.13;110.72
16505;HTU21D;8365;51.030;4.696;2023-04-25T01:39:35;10.09;110.74
16505;HTU21D;8365;51.030;4.696;2023-04-25T01:42:07;10.13;110.34
16505;HTU21D;8365;51.030;4.696;2023-04-25T01:44:38;9.85;112.03
16505;HTU21D;8365;51.030;4.696;2023-04-25T01:47:08;9.97;111.16
16505;HTU21D;8365;51.030;4.696;2023-04-25T01:49:39;9.78;112.19
16505;HTU21D;8365;51.030;4.696;2023-04-25T01:52:09;9.92;110.79
16505;HTU21D;8365;51.030;4.696;2023-04-25T01:54:40;9.92;111.41
16505;HTU21D;8365;51.030;4.696;2023-04-25T01:57:14;9.82;111.56
16505;HTU21D;8365;51.030;4.696;2023-04-25T01:59:44;9.85;111.34
16505;HTU21D;8365;51.030;4.696;2023-04-25T02:02:18;9.93;111.52
16505;HTU21D;8365;51.030;4.696;2023-04-25T02:04:48;9.83;113.03
16505;HTU21D;8365;51.030;4.696;2023-04-25T02:07:19;9.81;112.33
16505;HTU21D;8365;51.030;4.696;2023-04-25T02:09:50;9.81;112.52
16505;HTU21D;8365;51.030;4.696;2023-04-25T02:12:20;9.74;112.55
16505;HTU21D;8365;51.030;4.696;2023-04-25T02:14:51;9.70;112.25
16505;HTU21D;8365;51.030;4.696;2023-04-25T02:17:21;9.77;112.54
16505;HTU21D;8365;51.030;4.696;2023-04-25T02:19:52;9.82;111.67
16505;HTU21D;8365;51.030;4.696;2023-04-25T02:22:22;9.78;111.81
16505;HTU21D;8365;51.030;4.696;2023-04-25T02:24:55;9.83;111.39
16505;HTU21D;8365;51.030;4.696;2023-04-25T02:27:26;9.90;110.51
16505;HTU21D;8365;51.030;4.696;2023-04-25T02:29:56;9.77;111.47
16505;HTU21D;8365;51.030;4.696;2023-04-25T02:32:27;9.76;111.88
16505;HTU21D;8365;51.030;4.696;2023-04-25T02:34:57;9.71;111.61
16505;HTU21D;8365;51.030;4.696;2023-04-25T02:37:34;9.77;111.32
16505;HTU21D;8365;51.030;4.696;2023-04-25T02:40:05;9.80;111.97
16505;HTU21D;8365;51.030;4.696;2023-04-25T02:42:36;9.88;111.22
16505;HTU21D;8365;51.030;4.696;2023-04-25T02:45:10;9.93;110.74
16505;HTU21D;8365;51.030;4.696;2023-04-25T02:47:40;9.93;111.71
16505;HTU21D;8365;51.030;4.696;2023-04-25T02:50:11;9.97;110.52
16505;HTU21D;8365;51.030;4.696;2023-04-25T02:52:41;10.04;110.50
16505;HTU21D;8365;51.030;4.696;2023-04-25T02:55:13;9.94;110.68
16505;HTU21D;8365;51.030;4.696;2023-04-25T02:57:45;9.94;110.65
16505;HTU21D;8365;51.030;4.696;2023-04-25T03:00:16;9.97;110.46
16505;HTU21D;8365;51.030;4.696;2023-04-25T03:02:47;10.07;110.17
16505;HTU21D;8365;51.030;4.696;2023-04-25T03:05:17;9.88;110.46
16505;HTU21D;8365;51.030;4.696;2023-04-25T03:07:51;9.94;110.21
16505;HTU21D;8365;51.030;4.696;2023-04-25T03:10:21;9.94;110.04
16505;HTU21D;8365;51.030;4.696;2023-04-25T03:12:51;9.39;113.44
16505;HTU21D;8365;51.030;4.696;2023-04-25T03:15:22;9.45;114.16
16505;HTU21D;8365;51.030;4.696;2023-04-25T03:17:55;9.44;114.32
16505;HTU21D;8365;51.030;4.696;2023-04-25T03:20:25;9.30;115.35
16505;HTU21D;8365;51.030;4.696;2023-04-25T03:22:56;9.15;116.76
16505;HTU21D;8365;51.030;4.696;2023-04-25T03:25:26;9.11;117.96
16505;HTU21D;8365;51.030;4.696;2023-04-25T03:27:57;9.16;117.02
16505;HTU21D;8365;51.030;4.696;2023-04-25T03:30:30;9.16;116.41
16505;HTU21D;8365;51.030;4.696;2023-04-25T03:33:00;9.17;116.09
16505;HTU21D;8365;51.030;4.696;2023-04-25T03:35:30;8.89;116.12
16505;HTU21D;8365;51.030;4.696;2023-04-25T03:38:01;9.02;115.32
16505;HTU21D;8365;51.030;4.696;2023-04-25T03:40:31;8.86;116.99
16505;HTU21D;8365;51.030;4.696;2023-04-25T03:43:02;8.86;116.39
16505;HTU21D;8365;51.030;4.696;2023-04-25T03:45:32;9.01;116.10
16505;HTU21D;8365;51.030;4.696;2023-04-25T03:48:03;9.15;115.38
16505;HTU21D;8365;51.030;4.696;2023-04-25T03:50:34;9.22;114.42
16505;HTU21D;8365;51.030;4.696;2023-04-25T03:53:04;9.27;114.29
16505;HTU21D;8365;51.030;4.696;2023-04-25T03:55:35;9.33;114.25
16505;HTU21D;8365;51.030;4.696;2023-04-25T03:58:05;9.20;115.90
16505;HTU21D;8365;51.030;4.696;2023-04-25T04:00:36;9.32;113.83
16505;HTU21D;8365;51.030;4.696;2023-04-25T04:03:06;9.38;113.89
16505;HTU21D;8365;51.030;4.696;2023-04-25T04:05:37;9.32;114.54
16505;HTU21D;8365;51.030;4.696;2023-04-25T04:08:10;9.38;113.99
16505;HTU21D;8365;51.030;4.696;2023-04-25T04:10:41;9.26;115.10
16505;HTU21D;8365;51.030;4.696;2023-04-25T04:13:11;9.29;115.44
16505;HTU21D;8365;51.030;4.696;2023-04-25T04:15:41;9.26;115.49
16505;HTU21D;8365;51.030;4.696;2023-04-25T04:18:12;9.24;115.32
16505;HTU21D;8365;51.030;4.696;2023-04-25T04:20:42;9.24;116.69
16505;HTU21D;8365;51.030;4.696;2023-04-25T04:23:13;9.29;116.36
16505;HTU21D;8365;51.030;4.696;2023-04-25T04:25:44;9.38;115.51
16505;HTU21D;8365;51.030;4.696;2023-04-25T04:28:14;9.33;115.40
16505;HTU21D;8365;51.030;4.696;2023-04-25T04:30:46;9.26;115.94
16505;HTU21D;8365;51.030;4.696;2023-04-25T04:33:17;9.34;116.25
16505;HTU21D;8365;51.030;4.696;2023-04-25T04:35:50;9.21;117.36
16505;HTU21D;8365;51.030;4.696;2023-04-25T04:38:22;9.26;117.37
16505;HTU21D;8365;51.030;4.696;2023-04-25T04:40:52;9.35;116.73
16505;HTU21D;8365;51.030;4.696;2023-04-25T04:43:26;9.38;115.16
16505;HTU21D;8365;51.030;4.696;2023-04-25T04:45:56;9.25;116.15
16505;HTU21D;8365;51.030;4.696;2023-04-25T04:48:27;9.26;116.17
16505;HTU21D;8365;51.030;4.696;2023-04-25T04:50:58;9.23;115.83
16505;HTU21D;8365;51.030;4.696;2023-04-25T04:53:29;9.18;115.07
16505;HTU21D;8365;51.030;4.696;2023-04-25T04:55:59;9.16;115.94
16505;HTU21D;8365;51.030;4.696;2023-04-25T04:58:30;9.03;116.06
16505;HTU21D;8365;51.030;4.696;2023-04-25T05:01:01;9.01;115.41
16505;HTU21D;8365;51.030;4.696;2023-04-25T05:03:31;8.92;116.98
16505;HTU21D;8365;51.030;4.696;2023-04-25T05:06:02;8.82;116.79
16505;HTU21D;8365;51.030;4.696;2023-04-25T05:08:32;8.90;116.16
16505;HTU21D;8365;51.030;4.696;2023-04-25T05:11:03;9.05;115.85
16505;HTU21D;8365;51.030;4.696;2023-04-25T05:13:33;9.03;115.71
16505;HTU21D;8365;51.030;4.696;2023-04-25T05:16:04;9.07;116.43
16505;HTU21D;8365;51.030;4.696;2023-04-25T05:18:37;9.14;116.28
16505;HTU21D;8365;51.030;4.696;2023-04-25T05:21:07;9.15;115.54
16505;HTU21D;8365;51.030;4.696;2023-04-25T05:23:38;9.20;116.37
16505;HTU21D;8365;51.030;4.696;2023-04-25T05:26:09;9.36;115.41
16505;HTU21D;8365;51.030;4.696;2023-04-25T05:28:43;9.27;114.89
16505;HTU21D;8365;51.030;4.696;2023-04-25T05:31:14;9.24;114.61
16505;HTU21D;8365;51.030;4.696;2023-04-25T05:33:47;9.17;115.01
16505;HTU21D;8365;51.030;4.696;2023-04-25T05:36:20;9.22;114.78
16505;HTU21D;8365;51.030;4.696;2023-04-25T05:38:51;9.27;114.29
16505;HTU21D;8365;51.030;4.696;2023-04-25T05:41:24;9.32;113.87
16505;HTU21D;8365;51.030;4.696;2023-04-25T05:43:54;9.30;113.62
16505;HTU21D;8365;51.030;4.696;2023-04-25T05:46:25;9.26;114.25
16505;HTU21D;8365;51.030;4.696;2023-04-25T05:48:55;9.39;114.22
16505;HTU21D;8365;51.030;4.696;2023-04-25T05:51:26;9.44;113.63
16505;HTU21D;8365;51.030;4.696;2023-04-25T05:53:59;9.57;112.85
16505;HTU21D;8365;51.030;4.696;2023-04-25T05:56:32;9.63;114.06
16505;HTU21D;8365;51.030;4.696;2023-04-25T05:59:03;9.85;112.93
16505;HTU21D;8365;51.030;4.696;2023-04-25T06:01:33;9.88;113.32
16505;HTU21D;8365;51.030;4.696;2023-04-25T06:04:04;9.90;112.81
16505;HTU21D;8365;51.030;4.696;2023-04-25T06:06:34;9.86;111.35
16505;HTU21D;8365;51.030;4.696;2023-04-25T06:09:05;9.89;110.26
16505;HTU21D;8365;51.030;4.696;2023-04-25T06:11:35;10.07;109.70
16505;HTU21D;8365;51.030;4.696;2023-04-25T06:14:06;10.10;109.00
16505;HTU21D;8365;51.030;4.696;2023-04-25T06:16:37;10.18;109.49
16505;HTU21D;8365;51.030;4.696;2023-04-25T06:19:07;10.14;107.01
16505;HTU21D;8365;51.030;4.696;2023-04-25T06:21:37;10.10;107.22
16505;HTU21D;8365;51.030;4.696;2023-04-25T06:24:08;10.05;106.22
16505;HTU21D;8365;51.030;4.696;2023-04-25T06:26:38;10.01;105.25
16505;HTU21D;8365;51.030;4.696;2023-04-25T06:29:09;10.03;104.79
16505;HTU21D;8365;51.030;4.696;2023-04-25T06:31:39;9.94;105.65
16505;HTU21D;8365;51.030;4.696;2023-04-25T06:34:12;9.92;103.95
16505;HTU21D;8365;51.030;4.696;2023-04-25T06:36:42;10.16;104.32
16505;HTU21D;8365;51.030;4.696;2023-04-25T06:39:14;10.24;104.09
16505;HTU21D;8365;51.030;4.696;2023-04-25T06:41:44;10.14;104.40
16505;HTU21D;8365;51.030;4.696;2023-04-25T06:44:15;10.09;104.55
16505;HTU21D;8365;51.030;4.696;2023-04-25T06:46:45;10.01;103.49
16505;HTU21D;8365;51.030;4.696;2023-04-25T06:49:16;9.84;103.76
16505;HTU21D;8365;51.030;4.696;2023-04-25T06:51:46;9.83;103.35
16505;HTU21D;8365;51.030;4.696;2023-04-25T06:54:17;9.90;105.30
16505;HTU21D;8365;51.030;4.696;2023-04-25T06:56:47;10.07;102.62
16505;HTU21D;8365;51.030;4.696;2023-04-25T06:59:18;10.05;102.24
16505;HTU21D;8365;51.030;4.696;2023-04-25T07:01:51;10.24;101.93
16505;HTU21D;8365;51.030;4.696;2023-04-25T07:04:21;10.16;102.70
16505;HTU21D;8365;51.030;4.696;2023-04-25T07:06:52;10.29;100.90
16505;HTU21D;8365;51.030;4.696;2023-04-25T07:09:22;10.36;101.34
16505;HTU21D;8365;51.030;4.696;2023-04-25T07:11:52;10.26;101.21
16505;HTU21D;8365;51.030;4.696;2023-04-25T07:14:27;10.40;101.81
16505;HTU21D;8365;51.030;4.696;2023-04-25T07:17:00;10.60;100.26
16505;HTU21D;8365;51.030;4.696;2023-04-25T07:19:30;10.13;99.71
16505;HTU21D;8365;51.030;4.696;2023-04-25T07:22:01;10.34;99.69
16505;HTU21D;8365;51.030;4.696;2023-04-25T07:24:31;10.63;97.58
16505;HTU21D;8365;51.030;4.696;2023-04-25T07:27:01;10.65;96.77
16505;HTU21D;8365;51.030;4.696;2023-04-25T07:29:32;10.68;95.04
16505;HTU21D;8365;51.030;4.696;2023-04-25T07:32:06;10.71;97.13
16505;HTU21D;8365;51.030;4.696;2023-04-25T07:34:37;10.69;96.89
16505;HTU21D;8365;51.030;4.696;2023-04-25T07:37:08;10.73;96.82
16505;HTU21D;8365;51.030;4.696;2023-04-25T07:39:39;10.90;96.41
16505;HTU21D;8365;51.030;4.696;2023-04-25T07:42:10;10.51;95.11
16505;HTU21D;8365;51.030;4.696;2023-04-25T07:44:40;10.65;93.46
16505;HTU21D;8365;51.030;4.696;2023-04-25T07:47:12;10.83;93.64
16505;HTU21D;8365;51.030;4.696;2023-04-25T07:49:43;10.92;94.40
16505;HTU21D;8365;51.030;4.696;2023-04-25T07:52:14;10.97;93.75
16505;HTU21D;8365;51.030;4.696;2023-04-25T07:54:44;10.95;92.63
16505;HTU21D;8365;51.030;4.696;2023-04-25T07:57:18;10.77;92.92
16505;HTU21D;8365;51.030;4.696;2023-04-25T07:59:49;10.80;91.64
16505;HTU21D;8365;51.030;4.696;2023-04-25T08:02:20;11.07;91.37
16505;HTU21D;8365;51.030;4.696;2023-04-25T08:04:50;11.11;90.10
16505;HTU21D;8365;51.030;4.696;2023-04-25T08:07:21;11.27;90.87
16505;HTU21D;8365;51.030;4.696;2023-04-25T08:09:51;11.12;89.56
16505;HTU21D;8365;51.030;4.696;2023-04-25T08:12:22;11.17;88.29
16505;HTU21D;8365;51.030;4.696;2023-04-25T08:14:55;11.30;87.62
16505;HTU21D;8365;51.030;4.696;2023-04-25T08:17:25;11.54;85.32
16505;HTU21D;8365;51.030;4.696;2023-04-25T08:19:56;11.59;84.85
16505;HTU21D;8365;51.030;4.696;2023-04-25T08:22:30;11.66;84.12
16505;HTU21D;8365;51.030;4.696;2023-04-25T08:25:04;11.92;83.25
16505;HTU21D;8365;51.030;4.696;2023-04-25T08:27:34;12.06;84.61
16505;HTU21D;8365;51.030;4.696;2023-04-25T08:30:06;11.99;85.09
16505;HTU21D;8365;51.030;4.696;2023-04-25T08:32:38;12.26;80.51
16505;HTU21D;8365;51.030;4.696;2023-04-25T08:35:09;12.21;81.75
16505;HTU21D;8365;51.030;4.696;2023-04-25T08:37:39;12.57;80.03
16505;HTU21D;8365;51.030;4.696;2023-04-25T08:40:15;12.66;78.78
16505;HTU21D;8365;51.030;4.696;2023-04-25T08:42:46;12.73;75.47
16505;HTU21D;8365;51.030;4.696;2023-04-25T08:45:19;12.19;77.83
16505;HTU21D;8365;51.030;4.696;2023-04-25T08:47:52;12.04;79.25
16505;HTU21D;8365;51.030;4.696;2023-04-25T08:50:23;11.89;78.78
16505;HTU21D;8365;51.030;4.696;2023-04-25T08:52:57;12.19;79.21
16505;HTU21D;8365;51.030;4.696;2023-04-25T08:55:31;11.88;78.63
16505;HTU21D;8365;51.030;4.696;2023-04-25T08:58:02;11.68;78.15
16505;HTU21D;8365;51.030;4.696;2023-04-25T09:00:32;11.27;79.89
16505;HTU21D;8365;51.030;4.696;2023-04-25T09:03:03;11.29;79.29
16505;HTU21D;8365;51.030;4.696;2023-04-25T09:05:34;11.26;79.36
16505;HTU21D;8365;51.030;4.696;2023-04-25T09:08:05;11.10;80.75
16505;HTU21D;8365;51.030;4.696;2023-04-25T09:10:36;11.12;80.83
16505;HTU21D;8365;51.030;4.696;2023-04-25T09:13:12;11.18;81.75
16505;HTU21D;8365;51.030;4.696;2023-04-25T09:15:54;10.72;79.66
16505;HTU21D;8365;51.030;4.696;2023-04-25T09:18:29;10.30;85.33
16505;HTU21D;8365;51.030;4.696;2023-04-25T09:21:08;10.36;86.16
16505;HTU21D;8365;51.030;4.696;2023-04-25T09:23:51;10.45;87.74
16505;HTU21D;8365;51.030;4.696;2023-04-25T09:26:22;10.69;90.11
16505;HTU21D;8365;51.030;4.696;2023-04-25T09:29:08;10.54;89.55
16505;HTU21D;8365;51.030;4.696;2023-04-25T09:31:38;10.62;91.44
16505;HTU21D;8365;51.030;4.696;2023-04-25T09:34:09;10.22;88.69
16505;HTU21D;8365;51.030;4.696;2023-04-25T09:36:45;10.86;87.03
16505;HTU21D;8365;51.030;4.696;2023-04-25T09:39:16;12.27;82.19
16505;HTU21D;8365;51.030;4.696;2023-04-25T09:41:53;13.88;74.72
16505;HTU21D;8365;51.030;4.696;2023-04-25T09:44:24;14.97;66.90
16505;HTU21D;8365;51.030;4.696;2023-04-25T09:46:54;16.43;62.35
16505;HTU21D;8365;51.030;4.696;2023-04-25T09:49:26;16.47;60.61
16505;HTU21D;8365;51.030;4.696;2023-04-25T09:51:58;17.54;55.38
16505;HTU21D;8365;51.030;4.696;2023-04-25T09:54:29;17.96;49.43
16505;HTU21D;8365;51.030;4.696;2023-04-25T09:57:10;18.77;50.17
16505;HTU21D;8365;51.030;4.696;2023-04-25T09:59:51;18.85;48.81
16505;HTU21D;8365;51.030;4.696;2023-04-25T10:02:23;19.36;47.81
16505;HTU21D;8365;51.030;4.696;2023-04-25T10:04:55;18.11;47.47
16505;HTU21D;8365;51.030;4.696;2023-04-25T10:07:29;19.44;48.52
16505;HTU21D;8365;51.030;4.696;2023-04-25T10:10:01;20.46;45.93
16505;HTU21D;8365;51.030;4.696;2023-04-25T10:12:33;20.48;45.32
16505;HTU21D;8365;51.030;4.696;2023-04-25T10:15:04;20.28;44.42
16505;HTU21D;8365;51.030;4.696;2023-04-25T10:17:35;19.33;41.39
16505;HTU21D;8365;51.030;4.696;2023-04-25T10:20:06;19.71;41.58
16505;HTU21D;8365;51.030;4.696;2023-04-25T10:22:47;19.50;43.05
16505;HTU21D;8365;51.030;4.696;2023-04-25T10:25:24;19.15;43.36
16505;HTU21D;8365;51.030;4.696;2023-04-25T10:27:55;19.00;42.68
16505;HTU21D;8365;51.030;4.696;2023-04-25T10:30:25;18.54;44.71
16505;HTU21D;8365;51.030;4.696;2023-04-25T10:32:56;18.05;46.08
16505;HTU21D;8365;51.030;4.696;2023-04-25T10:35:28;17.37;45.42
16505;HTU21D;8365;51.030;4.696;2023-04-25T10:38:05;17.43;46.26
16505;HTU21D;8365;51.030;4.696;2023-04-25T10:40:36;16.78;50.09
16505;HTU21D;8365;51.030;4.696;2023-04-25T10:48:50;15.83;56.64
16505;HTU21D;8365;51.030;4.696;2023-04-25T10:51:26;15.92;54.82
16505;HTU21D;8365;51.030;4.696;2023-04-25T10:54:04;15.82;53.10
16505;HTU21D;8365;51.030;4.696;2023-04-25T10:56:39;16.80;51.27
16505;HTU21D;8365;51.030;4.696;2023-04-25T10:59:18;16.44;53.03
16505;HTU21D;8365;51.030;4.696;2023-04-25T11:01:52;15.80;49.63
16505;HTU21D;8365;51.030;4.696;2023-04-25T11:04:32;15.25;50.37
16505;HTU21D;8365;51.030;4.696;2023-04-25T11:07:34;14.56;52.09
16505;HTU21D;8365;51.030;4.696;2023-04-25T11:10:07;14.64;57.01
16505;HTU21D;8365;51.030;4.696;2023-04-25T11:12:38;14.00;53.25
16505;HTU21D;8365;51.030;4.696;2023-04-25T11:15:08;13.39;56.96
16505;HTU21D;8365;51.030;4.696;2023-04-25T11:17:39;12.97;59.70
16505;HTU21D;8365;51.030;4.696;2023-04-25T11:20:10;12.02;66.36
16505;HTU21D;8365;51.030;4.696;2023-04-25T11:22:44;11.87;70.55
16505;HTU21D;8365;51.030;4.696;2023-04-25T11:25:15;11.73;74.17
16505;HTU21D;8365;51.030;4.696;2023-04-25T11:27:55;11.76;76.19
16505;HTU21D;8365;51.030;4.696;2023-04-25T11:30:28;11.64;73.57
16505;HTU21D;8365;51.030;4.696;2023-04-25T11:33:00;11.85;75.36
16505;HTU21D;8365;51.030;4.696;2023-04-25T11:35:35;12.04;71.91
16505;HTU21D;8365;51.030;4.696;2023-04-25T11:38:05;12.63;66.11
16505;HTU21D;8365;51.030;4.696;2023-04-25T11:40:36;13.02;65.50
16505;HTU21D;8365;51.030;4.696;2023-04-25T11:43:07;14.66;56.96
16505;HTU21D;8365;51.030;4.696;2023-04-25T11:45:39;16.24;53.12
16505;HTU21D;8365;51.030;4.696;2023-04-25T11:48:09;17.05;48.89
16505;HTU21D;8365;51.030;4.696;2023-04-25T11:50:40;16.77;48.66
16505;HTU21D;8365;51.030;4.696;2023-04-25T11:53:10;17.32;48.37
16505;HTU21D;8365;51.030;4.696;2023-04-25T11:55:41;19.61;45.25
16505;HTU21D;8365;51.030;4.696;2023-04-25T11:58:11;21.02;39.61
16505;HTU21D;8365;51.030;4.696;2023-04-25T12:00:43;22.22;34.74
16505;HTU21D;8365;51.030;4.696;2023-04-25T12:03:14;22.26;35.01
16505;HTU21D;8365;51.030;4.696;2023-04-25T12:05:45;21.94;33.98
16505;HTU21D;8365;51.030;4.696;2023-04-25T12:08:16;23.40;34.79
16505;HTU21D;8365;51.030;4.696;2023-04-25T12:10:47;21.76;35.18
16505;HTU21D;8365;51.030;4.696;2023-04-25T12:13:19;20.37;36.47
16505;HTU21D;8365;51.030;4.696;2023-04-25T12:15:50;18.30;38.85
16505;HTU21D;8365;51.030;4.696;2023-04-25T12:18:23;17.08;41.65
16505;HTU21D;8365;51.030;4.696;2023-04-25T12:20:54;16.96;44.54
16505;HTU21D;8365;51.030;4.696;2023-04-25T12:23:26;15.84;45.90
16505;HTU21D;8365;51.030;4.696;2023-04-25T12:25:57;15.87;46.42
16505;HTU21D;8365;51.030;4.696;2023-04-25T12:28:28;15.71;46.96
16505;HTU21D;8365;51.030;4.696;2023-04-25T12:30:59;15.42;46.19
16505;HTU21D;8365;51.030;4.696;2023-04-25T12:33:36;15.28;46.42
16505;HTU21D;8365;51.030;4.696;2023-04-25T12:36:06;15.89;46.88
16505;HTU21D;8365;51.030;4.696;2023-04-25T12:38:42;17.40;44.02
16505;HTU21D;8365;51.030;4.696;2023-04-25T12:41:13;18.22;42.68
16505;HTU21D;8365;51.030;4.696;2023-04-25T12:43:43;18.09;41.26
16505;HTU21D;8365;51.030;4.696;2023-04-25T12:46:13;16.99;43.64
16505;HTU21D;8365;51.030;4.696;2023-04-25T12:48:44;16.90;44.84
16505;HTU21D;8365;51.030;4.696;2023-04-25T12:51:15;15.59;47.96
16505;HTU21D;8365;51.030;4.696;2023-04-25T12:53:45;14.85;48.41
16505;HTU21D;8365;51.030;4.696;2023-04-25T12:56:15;15.00;48.53
16505;HTU21D;8365;51.030;4.696;2023-04-25T12:58:46;15.08;49.23
16505;HTU21D;8365;51.030;4.696;2023-04-25T13:01:18;16.13;48.21
16505;HTU21D;8365;51.030;4.696;2023-04-25T13:03:49;17.58;44.40
16505;HTU21D;8365;51.030;4.696;2023-04-25T13:06:20;18.52;40.17
16505;HTU21D;8365;51.030;4.696;2023-04-25T13:08:50;19.62;39.14
16505;HTU21D;8365;51.030;4.696;2023-04-25T13:11:21;20.24;36.00
16505;HTU21D;8365;51.030;4.696;2023-04-25T13:13:51;20.53;36.16
16505;HTU21D;8365;51.030;4.696;2023-04-25T13:16:22;21.58;33.92
16505;HTU21D;8365;51.030;4.696;2023-04-25T13:18:55;22.12;34.63
16505;HTU21D;8365;51.030;4.696;2023-04-25T13:21:26;21.02;32.78
16505;HTU21D;8365;51.030;4.696;2023-04-25T13:23:57;21.04;33.45
16505;HTU21D;8365;51.030;4.696;2023-04-25T13:26:27;20.56;35.79
16505;HTU21D;8365;51.030;4.696;2023-04-25T13:28:58;21.15;34.04
16505;HTU21D;8365;51.030;4.696;2023-04-25T13:31:30;22.18;34.03
16505;HTU21D;8365;51.030;4.696;2023-04-25T13:34:01;22.05;33.82
16505;HTU21D;8365;51.030;4.696;2023-04-25T13:36:31;21.91;33.35
16505;HTU21D;8365;51.030;4.696;2023-04-25T13:39:03;20.79;34.76
16505;HTU21D;8365;51.030;4.696;2023-04-25T13:41:34;19.75;36.96
16505;HTU21D;8365;51.030;4.696;2023-04-25T13:44:05;19.48;38.19
16505;HTU21D;8365;51.030;4.696;2023-04-25T13:46:38;18.59;36.83
16505;HTU21D;8365;51.030;4.696;2023-04-25T13:49:08;18.22;39.29
16505;HTU21D;8365;51.030;4.696;2023-04-25T13:51:40;16.90;41.06
16505;HTU21D;8365;51.030;4.696;2023-04-25T13:54:11;15.66;44.10
16505;HTU21D;8365;51.030;4.696;2023-04-25T13:56:41;15.40;46.93
16505;HTU21D;8365;51.030;4.696;2023-04-25T13:59:12;15.55;46.94
16505;HTU21D;8365;51.030;4.696;2023-04-25T14:01:42;15.39;47.50
16505;HTU21D;8365;51.030;4.696;2023-04-25T14:04:13;15.17;46.76
16505;HTU21D;8365;51.030;4.696;2023-04-25T14:06:43;15.40;48.28
16505;HTU21D;8365;51.030;4.696;2023-04-25T14:09:14;15.62;47.35
16505;HTU21D;8365;51.030;4.696;2023-04-25T14:11:45;16.18;45.24
16505;HTU21D;8365;51.030;4.696;2023-04-25T14:14:16;17.13;42.65
16505;HTU21D;8365;51.030;4.696;2023-04-25T14:16:47;18.79;40.12
16505;HTU21D;8365;51.030;4.696;2023-04-25T14:19:21;19.68;35.92
16505;HTU21D;8365;51.030;4.696;2023-04-25T14:21:52;18.15;39.45
16505;HTU21D;8365;51.030;4.696;2023-04-25T14:24:24;17.92;40.23
16505;HTU21D;8365;51.030;4.696;2023-04-25T14:26:55;17.97;40.60
16505;HTU21D;8365;51.030;4.696;2023-04-25T14:29:28;16.92;42.25
16505;HTU21D;8365;51.030;4.696;2023-04-25T14:31:59;17.30;43.06
16505;HTU21D;8365;51.030;4.696;2023-04-25T14:34:30;16.82;42.61
16505;HTU21D;8365;51.030;4.696;2023-04-25T14:37:00;16.27;43.83
16505;HTU21D;8365;51.030;4.696;2023-04-25T14:39:31;16.10;45.25
16505;HTU21D;8365;51.030;4.696;2023-04-25T14:42:01;15.73;46.10
16505;HTU21D;8365;51.030;4.696;2023-04-25T14:44:34;16.27;45.06
16505;HTU21D;8365;51.030;4.696;2023-04-25T14:47:05;17.29;44.74
16505;HTU21D;8365;51.030;4.696;2023-04-25T14:49:35;18.37;41.23
16505;HTU21D;8365;51.030;4.696;2023-04-25T14:52:06;18.62;39.57
16505;HTU21D;8365;51.030;4.696;2023-04-25T14:54:36;18.38;38.91
16505;HTU21D;8365;51.030;4.696;2023-04-25T14:57:06;17.73;40.38
16505;HTU21D;8365;51.030;4.696;2023-04-25T14:59:37;18.17;38.57
16505;HTU21D;8365;51.030;4.696;2023-04-25T15:02:08;18.36;39.52
16505;HTU21D;8365;51.030;4.696;2023-04-25T15:04:39;19.43;37.15
16505;HTU21D;8365;51.030;4.696;2023-04-25T15:07:09;19.83;36.59
16505;HTU21D;8365;51.030;4.696;2023-04-25T15:09:40;20.24;36.32
16505;HTU21D;8365;51.030;4.696;2023-04-25T15:12:11;21.25;35.94
16505;HTU21D;8365;51.030;4.696;2023-04-25T15:14:42;21.16;36.79
16505;HTU21D;8365;51.030;4.696;2023-04-25T15:17:12;22.02;35.99
16505;HTU21D;8365;51.030;4.696;2023-04-25T15:19:44;22.27;34.47
16505;HTU21D;8365;51.030;4.696;2023-04-25T15:22:15;21.81;32.55
16505;HTU21D;8365;51.030;4.696;2023-04-25T15:24:45;23.16;33.38
16505;HTU21D;8365;51.030;4.696;2023-04-25T15:27:16;23.02;31.50
16505;HTU21D;8365;51.030;4.696;2023-04-25T15:29:47;22.61;32.86
16505;HTU21D;8365;51.030;4.696;2023-04-25T15:32:17;22.87;33.45
16505;HTU21D;8365;51.030;4.696;2023-04-25T15:34:48;21.50;33.35
16505;HTU21D;8365;51.030;4.696;2023-04-25T15:37:20;20.76;34.93
16505;HTU21D;8365;51.030;4.696;2023-04-25T15:42:47;19.13;38.25
16505;HTU21D;8365;51.030;4.696;2023-04-25T15:45:23;18.09;40.86
16505;HTU21D;8365;51.030;4.696;2023-04-25T15:47:55;17.45;41.94
16505;HTU21D;8365;51.030;4.696;2023-04-25T15:50:26;17.04;42.33
16505;HTU21D;8365;51.030;4.696;2023-04-25T15:52:56;16.77;43.54
16505;HTU21D;8365;51.030;4.696;2023-04-25T15:55:27;16.29;44.00
16505;HTU21D;8365;51.030;4.696;2023-04-25T15:57:57;16.12;44.10
16505;HTU21D;8365;51.030;4.696;2023-04-25T16:00:28;15.67;43.94
16505;HTU21D;8365;51.030;4.696;2023-04-25T16:02:58;15.74;44.20